Aeroporto :
LOGIN :

Iscrizione | Disclaimer

   EN    FR    IT 

 










Sommario :    VFR   VFR Marginale   IFR   IFR Intensivo   IFR Molto Intensivo
Visibilità : 
Base nubi : 
>= 8 km
>= 3000ft
5 / 8 km
1000 / 3000 ft
1500m / 5 km
500 / 1000 ft
800 / 1500m
200 / 500 ft
< 800m
< 200 ft
Simboli :   Temporali  Nebbia  Neve Forte  Precipitazioni Forti  Vento > 20 kt
SIGMETs :   Varie  Temporali  Ghiacco  Turbolenza  Onda orograficha  Ceneri Vulcaniche







- Altitudine del aeroporto : 187 ft


LPMR - Monte Real Air Base

ULTIMO METAR :
  • 231500Z 15010KT 9999 FEW030 25/13 Q1023

METARs OBSOLETI :
  • 231400Z 13008KT 090V160 9999 FEW030 25/13 Q1022
  • 231300Z 13010KT 9999 FEW028 25/13 Q1023

TAF TAF LPMR
Valido dal 23 a 12 ore il 24 a 12 ore UTC


231103Z 2312/2412 12012KT CAVOK
BECMG 2316/2318 18005KT SCT030
PROB30
TEMPO 2316/2318 6000 SHRA FEW035TCU
BECMG 2321/2324 10005KT CAVOK
BECMG 2410/2412 33012KT
Nessun NOTAM noto per questo aeroporto.
1 SIGMET conosciuto per la FIR Lisboa (LPPC) :
 
Temporali affogati
LPPC SIGMET 2 VALID 231500/231800 LPPT
LPPC LISBON FIR EMBD TS OBS WI N3745 W00850 - N3900 W00850 - N3900 W00800 - N3745 W00800 - N3745 W00850 TOP FL350 MOV N 25KT NC=



MetMap, La meteo Aeronautica in un colpo d'occhio ! - Copyright ORBIFLY Dicembre 2007 - Disclaimer

ORBIFLY MET'MAP TEAM :

Programmazione e sviluppo : Alexandra Zaïnal
Concezione e sviluppo : Baudouin d'Aumeries
Co-Programmazione e sviluppo : Marc-Olivier Méhu
Supporto tecnico e logistico : Manuel Goepfert
Aiuto per la traduzione : Arnaldo La Scala

Contatto : metmap@orbifly.com




FONTI E CREDITI :

   NOAA